sensor_id;sensor_type;location;lat;lon;timestamp;pressure;altitude;pressure_sealevel;temperature;humidity
36092;BME280;22147;52.388;13.390;2022-12-20T00:02:06;101267.03;;;2.24;100.00
36092;BME280;22147;52.388;13.390;2022-12-20T00:04:36;101267.69;;;2.10;100.00
36092;BME280;22147;52.388;13.390;2022-12-20T00:07:06;101278.13;;;2.13;100.00
36092;BME280;22147;52.388;13.390;2022-12-20T00:09:35;101267.88;;;2.30;100.00
36092;BME280;22147;52.388;13.390;2022-12-20T00:12:03;101255.94;;;2.14;100.00
36092;BME280;22147;52.388;13.390;2022-12-20T00:14:31;101263.25;;;2.03;100.00
36092;BME280;22147;52.388;13.390;2022-12-20T00:17:00;101260.63;;;1.92;100.00
36092;BME280;22147;52.388;13.390;2022-12-20T00:19:28;101257.41;;;1.95;100.00
36092;BME280;22147;52.388;13.390;2022-12-20T00:21:57;101259.53;;;2.20;100.00
36092;BME280;22147;52.388;13.390;2022-12-20T00:24:25;101262.38;;;2.03;100.00
36092;BME280;22147;52.388;13.390;2022-12-20T00:26:54;101265.66;;;2.27;100.00
36092;BME280;22147;52.388;13.390;2022-12-20T00:29:22;101263.88;;;2.16;100.00
36092;BME280;22147;52.388;13.390;2022-12-20T00:31:51;101255.84;;;2.04;100.00
36092;BME280;22147;52.388;13.390;2022-12-20T00:34:19;101243.09;;;2.20;100.00
36092;BME280;22147;52.388;13.390;2022-12-20T00:36:47;101236.09;;;2.29;100.00
36092;BME280;22147;52.388;13.390;2022-12-20T00:39:17;101242.06;;;2.26;100.00
36092;BME280;22147;52.388;13.390;2022-12-20T00:41:44;101249.34;;;2.10;100.00
36092;BME280;22147;52.388;13.390;2022-12-20T00:44:13;101246.34;;;2.12;100.00
36092;BME280;22147;52.388;13.390;2022-12-20T00:46:41;101259.09;;;2.28;100.00
36092;BME280;22147;52.388;13.390;2022-12-20T00:49:10;101248.41;;;2.27;100.00
36092;BME280;22147;52.388;13.390;2022-12-20T00:51:38;101253.00;;;2.21;100.00
36092;BME280;22147;52.388;13.390;2022-12-20T00:54:06;101252.69;;;2.17;100.00
36092;BME280;22147;52.388;13.390;2022-12-20T00:56:35;101252.00;;;2.32;100.00
36092;BME280;22147;52.388;13.390;2022-12-20T00:59:03;101241.81;;;2.28;100.00
36092;BME280;22147;52.388;13.390;2022-12-20T01:01:32;101243.56;;;2.39;100.00
36092;BME280;22147;52.388;13.390;2022-12-20T01:04:03;101248.59;;;2.20;100.00
36092;BME280;22147;52.388;13.390;2022-12-20T01:06:32;101248.34;;;2.21;100.00
36092;BME280;22147;52.388;13.390;2022-12-20T01:09:00;101244.41;;;2.12;100.00
36092;BME280;22147;52.388;13.390;2022-12-20T01:11:32;101244.53;;;2.22;100.00
36092;BME280;22147;52.388;13.390;2022-12-20T01:14:13;101243.50;;;2.29;100.00
36092;BME280;22147;52.388;13.390;2022-12-20T01:16:46;101248.91;;;2.23;100.00
36092;BME280;22147;52.388;13.390;2022-12-20T01:19:17;101258.38;;;2.11;100.00
36092;BME280;22147;52.388;13.390;2022-12-20T01:21:47;101252.78;;;2.00;100.00
36092;BME280;22147;52.388;13.390;2022-12-20T01:24:18;101248.41;;;1.99;100.00
36092;BME280;22147;52.388;13.390;2022-12-20T01:26:46;101246.84;;;2.09;100.00
36092;BME280;22147;52.388;13.390;2022-12-20T01:29:16;101259.41;;;2.04;100.00
36092;BME280;22147;52.388;13.390;2022-12-20T01:31:46;101238.66;;;2.14;100.00
36092;BME280;22147;52.388;13.390;2022-12-20T01:34:16;101247.63;;;2.04;100.00
36092;BME280;22147;52.388;13.390;2022-12-20T01:36:46;101247.84;;;1.97;100.00
36092;BME280;22147;52.388;13.390;2022-12-20T01:39:16;101248.50;;;2.10;100.00
36092;BME280;22147;52.388;13.390;2022-12-20T01:41:46;101238.00;;;2.01;100.00
36092;BME280;22147;52.388;13.390;2022-12-20T01:46:48;101245.50;;;2.11;100.00
36092;BME280;22147;52.388;13.390;2022-12-20T01:49:41;101238.16;;;2.17;100.00
36092;BME280;22147;52.388;13.390;2022-12-20T01:52:16;101227.56;;;2.31;100.00
36092;BME280;22147;52.388;13.390;2022-12-20T01:55:01;101230.25;;;2.20;100.00
36092;BME280;22147;52.388;13.390;2022-12-20T02:00:28;101226.97;;;2.23;100.00
36092;BME280;22147;52.388;13.390;2022-12-20T02:03:06;101226.25;;;2.33;100.00
36092;BME280;22147;52.388;13.390;2022-12-20T02:05:43;101217.97;;;2.28;100.00
36092;BME280;22147;52.388;13.390;2022-12-20T02:08:18;101226.06;;;2.45;100.00
36092;BME280;22147;52.388;13.390;2022-12-20T02:27:59;101236.47;;;2.43;100.00
36092;BME280;22147;52.388;13.390;2022-12-20T02:30:37;101230.50;;;2.51;100.00
36092;BME280;22147;52.388;13.390;2022-12-20T02:33:12;101220.91;;;2.54;100.00
36092;BME280;22147;52.388;13.390;2022-12-20T02:35:43;101208.53;;;2.46;100.00
36092;BME280;22147;52.388;13.390;2022-12-20T02:38:33;101214.81;;;2.41;100.00
36092;BME280;22147;52.388;13.390;2022-12-20T02:44:13;101201.69;;;2.49;100.00
36092;BME280;22147;52.388;13.390;2022-12-20T02:47:13;101190.69;;;2.43;100.00
36092;BME280;22147;52.388;13.390;2022-12-20T02:49:56;101207.31;;;2.32;100.00
36092;BME280;22147;52.388;13.390;2022-12-20T02:52:30;101195.97;;;2.50;100.00
36092;BME280;22147;52.388;13.390;2022-12-20T02:55:05;101193.16;;;2.45;100.00
36092;BME280;22147;52.388;13.390;2022-12-20T02:58:20;101182.28;;;2.55;100.00
36092;BME280;22147;52.388;13.390;2022-12-20T03:01:15;101183.66;;;2.58;100.00
36092;BME280;22147;52.388;13.390;2022-12-20T03:03:53;101177.44;;;2.73;100.00
36092;BME280;22147;52.388;13.390;2022-12-20T03:06:23;101177.91;;;2.59;100.00
36092;BME280;22147;52.388;13.390;2022-12-20T03:08:51;101169.63;;;2.49;100.00
36092;BME280;22147;52.388;13.390;2022-12-20T03:11:19;101171.00;;;2.52;100.00
36092;BME280;22147;52.388;13.390;2022-12-20T03:13:47;101169.34;;;2.46;100.00
36092;BME280;22147;52.388;13.390;2022-12-20T03:16:16;101170.72;;;2.48;100.00
36092;BME280;22147;52.388;13.390;2022-12-20T03:18:44;101156.44;;;2.46;100.00
36092;BME280;22147;52.388;13.390;2022-12-20T03:21:13;101164.28;;;2.70;100.00
36092;BME280;22147;52.388;13.390;2022-12-20T03:23:41;101164.03;;;2.76;100.00
36092;BME280;22147;52.388;13.390;2022-12-20T03:26:10;101170.88;;;2.74;100.00
36092;BME280;22147;52.388;13.390;2022-12-20T03:28:38;101171.13;;;2.67;100.00
36092;BME280;22147;52.388;13.390;2022-12-20T03:31:06;101159.94;;;2.79;100.00
36092;BME280;22147;52.388;13.390;2022-12-20T03:33:35;101163.47;;;2.69;100.00
36092;BME280;22147;52.388;13.390;2022-12-20T03:36:03;101164.53;;;2.68;100.00
36092;BME280;22147;52.388;13.390;2022-12-20T03:38:32;101173.94;;;2.82;100.00
36092;BME280;22147;52.388;13.390;2022-12-20T03:41:02;101174.91;;;2.61;100.00
36092;BME280;22147;52.388;13.390;2022-12-20T03:43:32;101166.75;;;2.71;100.00
36092;BME280;22147;52.388;13.390;2022-12-20T03:46:02;101175.47;;;2.63;100.00
36092;BME280;22147;52.388;13.390;2022-12-20T03:48:32;101184.06;;;2.77;100.00
36092;BME280;22147;52.388;13.390;2022-12-20T03:51:03;101183.25;;;2.81;100.00
36092;BME280;22147;52.388;13.390;2022-12-20T03:53:33;101172.19;;;2.66;100.00
36092;BME280;22147;52.388;13.390;2022-12-20T03:56:04;101172.44;;;2.59;100.00
36092;BME280;22147;52.388;13.390;2022-12-20T03:58:34;101172.50;;;2.70;100.00
36092;BME280;22147;52.388;13.390;2022-12-20T04:01:24;101181.53;;;2.65;100.00
36092;BME280;22147;52.388;13.390;2022-12-20T04:03:56;101167.34;;;2.78;100.00
36092;BME280;22147;52.388;13.390;2022-12-20T04:06:24;101162.69;;;2.79;100.00
36092;BME280;22147;52.388;13.390;2022-12-20T04:08:52;101165.34;;;2.69;100.00
36092;BME280;22147;52.388;13.390;2022-12-20T04:11:21;101177.25;;;2.84;100.00
36092;BME280;22147;52.388;13.390;2022-12-20T04:13:52;101170.94;;;2.84;100.00
36092;BME280;22147;52.388;13.390;2022-12-20T04:16:27;101171.22;;;2.88;100.00
36092;BME280;22147;52.388;13.390;2022-12-20T04:18:58;101177.81;;;2.87;100.00
36092;BME280;22147;52.388;13.390;2022-12-20T04:21:32;101171.69;;;2.69;100.00
36092;BME280;22147;52.388;13.390;2022-12-20T04:24:04;101162.59;;;2.69;100.00
36092;BME280;22147;52.388;13.390;2022-12-20T04:26:35;101161.06;;;2.83;100.00
36092;BME280;22147;52.388;13.390;2022-12-20T04:29:06;101146.22;;;2.79;100.00
36092;BME280;22147;52.388;13.390;2022-12-20T04:31:34;101150.69;;;2.90;100.00
36092;BME280;22147;52.388;13.390;2022-12-20T04:34:04;101141.53;;;2.79;100.00
36092;BME280;22147;52.388;13.390;2022-12-20T04:36:31;101148.63;;;2.65;100.00
36092;BME280;22147;52.388;13.390;2022-12-20T04:38:59;101137.59;;;2.55;100.00
36092;BME280;22147;52.388;13.390;2022-12-20T04:41:28;101133.53;;;2.68;100.00
36092;BME280;22147;52.388;13.390;2022-12-20T04:43:57;101151.06;;;2.61;100.00
36092;BME280;22147;52.388;13.390;2022-12-20T04:46:25;101157.59;;;2.55;100.00
36092;BME280;22147;52.388;13.390;2022-12-20T04:48:53;101147.88;;;2.80;100.00
36092;BME280;22147;52.388;13.390;2022-12-20T04:51:27;101140.97;;;2.72;100.00
36092;BME280;22147;52.388;13.390;2022-12-20T04:53:57;101151.47;;;2.43;100.00
36092;BME280;22147;52.388;13.390;2022-12-20T04:56:28;101142.13;;;2.39;100.00
36092;BME280;22147;52.388;13.390;2022-12-20T04:58:58;101145.72;;;2.44;100.00
36092;BME280;22147;52.388;13.390;2022-12-20T05:01:26;101143.78;;;2.40;100.00
36092;BME280;22147;52.388;13.390;2022-12-20T05:03:56;101152.03;;;2.45;100.00
36092;BME280;22147;52.388;13.390;2022-12-20T05:06:24;101144.25;;;2.69;100.00
36092;BME280;22147;52.388;13.390;2022-12-20T05:08:54;101138.09;;;2.52;100.00
36092;BME280;22147;52.388;13.390;2022-12-20T05:11:23;101132.81;;;2.40;100.00
36092;BME280;22147;52.388;13.390;2022-12-20T05:13:53;101138.31;;;2.40;100.00
36092;BME280;22147;52.388;13.390;2022-12-20T05:16:23;101146.38;;;2.57;100.00
36092;BME280;22147;52.388;13.390;2022-12-20T05:18:53;101143.78;;;2.40;100.00
36092;BME280;22147;52.388;13.390;2022-12-20T05:21:23;101139.69;;;2.42;100.00
36092;BME280;22147;52.388;13.390;2022-12-20T05:24:12;101137.84;;;2.53;100.00
36092;BME280;22147;52.388;13.390;2022-12-20T05:27:00;101144.44;;;2.52;100.00
36092;BME280;22147;52.388;13.390;2022-12-20T05:29:30;101144.03;;;2.76;100.00
36092;BME280;22147;52.388;13.390;2022-12-20T05:32:00;101132.50;;;2.79;100.00
36092;BME280;22147;52.388;13.390;2022-12-20T05:34:29;101128.94;;;2.78;100.00
36092;BME280;22147;52.388;13.390;2022-12-20T05:37:00;101127.88;;;2.90;100.00
36092;BME280;22147;52.388;13.390;2022-12-20T05:39:29;101127.81;;;2.74;100.00
36092;BME280;22147;52.388;13.390;2022-12-20T05:41:59;101118.16;;;2.67;100.00
36092;BME280;22147;52.388;13.390;2022-12-20T05:44:29;101119.59;;;2.74;100.00
36092;BME280;22147;52.388;13.390;2022-12-20T05:46:58;101119.69;;;2.95;100.00
36092;BME280;22147;52.388;13.390;2022-12-20T05:49:26;101124.31;;;2.89;100.00
36092;BME280;22147;52.388;13.390;2022-12-20T05:51:55;101119.59;;;2.79;100.00
36092;BME280;22147;52.388;13.390;2022-12-20T05:54:23;101105.28;;;2.67;100.00
36092;BME280;22147;52.388;13.390;2022-12-20T05:56:51;101114.84;;;2.64;100.00
36092;BME280;22147;52.388;13.390;2022-12-20T05:59:20;101115.53;;;2.87;100.00
36092;BME280;22147;52.388;13.390;2022-12-20T06:01:48;101118.53;;;2.85;100.00
36092;BME280;22147;52.388;13.390;2022-12-20T06:04:17;101108.91;;;2.78;100.00
36092;BME280;22147;52.388;13.390;2022-12-20T06:06:46;101105.63;;;2.76;100.00
36092;BME280;22147;52.388;13.390;2022-12-20T06:09:14;101105.06;;;2.74;100.00
36092;BME280;22147;52.388;13.390;2022-12-20T06:11:42;101114.09;;;2.69;100.00
36092;BME280;22147;52.388;13.390;2022-12-20T06:14:10;101114.31;;;2.62;100.00
36092;BME280;22147;52.388;13.390;2022-12-20T06:16:39;101108.84;;;2.62;100.00
36092;BME280;22147;52.388;13.390;2022-12-20T06:19:07;101117.47;;;2.87;100.00
36092;BME280;22147;52.388;13.390;2022-12-20T06:21:36;101123.88;;;3.08;100.00
36092;BME280;22147;52.388;13.390;2022-12-20T06:24:05;101123.06;;;3.17;100.00
36092;BME280;22147;52.388;13.390;2022-12-20T06:26:33;101133.47;;;3.15;100.00
36092;BME280;22147;52.388;13.390;2022-12-20T06:29:05;101136.53;;;3.19;100.00
36092;BME280;22147;52.388;13.390;2022-12-20T06:31:36;101139.00;;;3.20;100.00
36092;BME280;22147;52.388;13.390;2022-12-20T06:34:06;101135.97;;;3.12;100.00
36092;BME280;22147;52.388;13.390;2022-12-20T06:36:36;101131.31;;;3.17;100.00
36092;BME280;22147;52.388;13.390;2022-12-20T06:39:06;101144.00;;;3.29;100.00
36092;BME280;22147;52.388;13.390;2022-12-20T06:41:39;101146.19;;;3.26;100.00
36092;BME280;22147;52.388;13.390;2022-12-20T06:44:08;101145.94;;;3.38;100.00
36092;BME280;22147;52.388;13.390;2022-12-20T06:46:38;101140.72;;;3.37;100.00
36092;BME280;22147;52.388;13.390;2022-12-20T06:49:08;101141.84;;;3.46;100.00
36092;BME280;22147;52.388;13.390;2022-12-20T06:51:37;101152.28;;;3.39;100.00
36092;BME280;22147;52.388;13.390;2022-12-20T06:54:07;101156.59;;;3.30;100.00
36092;BME280;22147;52.388;13.390;2022-12-20T06:56:37;101163.47;;;3.22;100.00
36092;BME280;22147;52.388;13.390;2022-12-20T06:59:07;101156.31;;;3.21;100.00
36092;BME280;22147;52.388;13.390;2022-12-20T07:01:37;101153.81;;;3.14;100.00
36092;BME280;22147;52.388;13.390;2022-12-20T07:04:07;101149.44;;;3.23;100.00
36092;BME280;22147;52.388;13.390;2022-12-20T07:06:37;101148.66;;;3.33;100.00
36092;BME280;22147;52.388;13.390;2022-12-20T07:09:07;101152.22;;;3.29;100.00
36092;BME280;22147;52.388;13.390;2022-12-20T07:11:37;101145.09;;;3.33;100.00
36092;BME280;22147;52.388;13.390;2022-12-20T07:14:07;101148.97;;;3.42;100.00
36092;BME280;22147;52.388;13.390;2022-12-20T07:16:37;101136.09;;;3.47;100.00
36092;BME280;22147;52.388;13.390;2022-12-20T07:19:11;101140.72;;;3.47;100.00
36092;BME280;22147;52.388;13.390;2022-12-20T07:21:42;101147.88;;;3.48;100.00
36092;BME280;22147;52.388;13.390;2022-12-20T07:24:09;101141.28;;;3.44;100.00
36092;BME280;22147;52.388;13.390;2022-12-20T07:26:38;101144.28;;;3.37;100.00
36092;BME280;22147;52.388;13.390;2022-12-20T07:29:06;101148.97;;;3.47;100.00
36092;BME280;22147;52.388;13.390;2022-12-20T07:31:43;101144.59;;;3.46;100.00
36092;BME280;22147;52.388;13.390;2022-12-20T07:34:13;101159.38;;;3.35;100.00
36092;BME280;22147;52.388;13.390;2022-12-20T07:36:43;101165.13;;;3.28;100.00
36092;BME280;22147;52.388;13.390;2022-12-20T07:39:14;101152.00;;;3.45;100.00
36092;BME280;22147;52.388;13.390;2022-12-20T07:41:43;101161.09;;;3.61;100.00
36092;BME280;22147;52.388;13.390;2022-12-20T07:44:13;101153.13;;;3.50;100.00
36092;BME280;22147;52.388;13.390;2022-12-20T07:46:43;101159.44;;;3.55;100.00
36092;BME280;22147;52.388;13.390;2022-12-20T07:49:13;101170.44;;;3.65;100.00
36092;BME280;22147;52.388;13.390;2022-12-20T07:51:53;101173.47;;;3.59;100.00
36092;BME280;22147;52.388;13.390;2022-12-20T07:54:34;101167.66;;;3.50;100.00
36092;BME280;22147;52.388;13.390;2022-12-20T07:57:17;101161.88;;;3.41;100.00
36092;BME280;22147;52.388;13.390;2022-12-20T07:59:58;101157.50;;;3.51;100.00
36092;BME280;22147;52.388;13.390;2022-12-20T08:02:36;101167.75;;;3.71;100.00
36092;BME280;22147;52.388;13.390;2022-12-20T08:05:11;101162.75;;;3.62;100.00
36092;BME280;22147;52.388;13.390;2022-12-20T08:07:42;101168.25;;;3.67;100.00
36092;BME280;22147;52.388;13.390;2022-12-20T08:10:16;101167.72;;;3.60;100.00
36092;BME280;22147;52.388;13.390;2022-12-20T08:12:48;101168.25;;;3.62;100.00
36092;BME280;22147;52.388;13.390;2022-12-20T08:15:19;101172.38;;;3.60;100.00
36092;BME280;22147;52.388;13.390;2022-12-20T08:17:51;101174.56;;;3.63;100.00
36092;BME280;22147;52.388;13.390;2022-12-20T08:20:19;101166.88;;;3.60;100.00
36092;BME280;22147;52.388;13.390;2022-12-20T08:22:47;101170.16;;;3.57;100.00
36092;BME280;22147;52.388;13.390;2022-12-20T08:25:16;101170.75;;;3.69;100.00
36092;BME280;22147;52.388;13.390;2022-12-20T08:27:44;101166.34;;;3.63;100.00
36092;BME280;22147;52.388;13.390;2022-12-20T08:30:13;101160.03;;;3.78;100.00
36092;BME280;22147;52.388;13.390;2022-12-20T08:32:41;101160.59;;;3.80;100.00
36092;BME280;22147;52.388;13.390;2022-12-20T08:35:10;101151.25;;;3.71;100.00
36092;BME280;22147;52.388;13.390;2022-12-20T08:37:41;101145.75;;;3.71;100.00
36092;BME280;22147;52.388;13.390;2022-12-20T08:40:12;101150.72;;;3.84;100.00
36092;BME280;22147;52.388;13.390;2022-12-20T08:42:42;101147.97;;;3.84;100.00
36092;BME280;22147;52.388;13.390;2022-12-20T08:45:12;101147.13;;;3.78;100.00
36092;BME280;22147;52.388;13.390;2022-12-20T08:47:43;101150.19;;;3.92;100.00
36092;BME280;22147;52.388;13.390;2022-12-20T08:50:13;101161.47;;;4.01;100.00
36092;BME280;22147;52.388;13.390;2022-12-20T08:52:43;101162.53;;;3.95;100.00
36092;BME280;22147;52.388;13.390;2022-12-20T08:55:13;101165.84;;;4.12;100.00
36092;BME280;22147;52.388;13.390;2022-12-20T08:57:43;101166.66;;;4.13;100.00
36092;BME280;22147;52.388;13.390;2022-12-20T09:00:14;101159.53;;;3.96;100.00
36092;BME280;22147;52.388;13.390;2022-12-20T09:02:44;101151.00;;;3.93;100.00
36092;BME280;22147;52.388;13.390;2022-12-20T09:05:17;101152.66;;;3.99;100.00
36092;BME280;22147;52.388;13.390;2022-12-20T09:07:47;101149.63;;;4.11;100.00
36092;BME280;22147;52.388;13.390;2022-12-20T09:10:17;101143.84;;;4.27;100.00
36092;BME280;22147;52.388;13.390;2022-12-20T09:12:47;101139.19;;;4.33;100.00
36092;BME280;22147;52.388;13.390;2022-12-20T09:15:17;101136.72;;;4.37;100.00
36092;BME280;22147;52.388;13.390;2022-12-20T09:17:47;101130.13;;;4.33;100.00
36092;BME280;22147;52.388;13.390;2022-12-20T09:20:17;101134.81;;;4.22;100.00
36092;BME280;22147;52.388;13.390;2022-12-20T09:22:47;101131.22;;;4.16;100.00
36092;BME280;22147;52.388;13.390;2022-12-20T09:25:17;101130.13;;;4.22;100.00
36092;BME280;22147;52.388;13.390;2022-12-20T09:27:47;101133.69;;;4.23;100.00
36092;BME280;22147;52.388;13.390;2022-12-20T09:30:17;101129.56;;;4.41;100.00
36092;BME280;22147;52.388;13.390;2022-12-20T09:32:46;101136.44;;;4.33;100.00
36092;BME280;22147;52.388;13.390;2022-12-20T09:35:14;101137.22;;;4.54;100.00
36092;BME280;22147;52.388;13.390;2022-12-20T09:37:51;101140.81;;;4.60;100.00
36092;BME280;22147;52.388;13.390;2022-12-20T09:40:28;101135.84;;;4.57;100.00
36092;BME280;22147;52.388;13.390;2022-12-20T09:43:01;101134.75;;;4.58;100.00
36092;BME280;22147;52.388;13.390;2022-12-20T09:45:35;101126.50;;;4.63;100.00
36092;BME280;22147;52.388;13.390;2022-12-20T09:48:19;101128.88;;;4.95;100.00
36092;BME280;22147;52.388;13.390;2022-12-20T09:56:50;101121.22;;;5.42;100.00
36092;BME280;22147;52.388;13.390;2022-12-20T09:59:34;101129.25;;;5.38;100.00
36092;BME280;22147;52.388;13.390;2022-12-20T10:02:24;101123.97;;;5.42;100.00
36092;BME280;22147;52.388;13.390;2022-12-20T10:05:34;101118.22;;;5.38;100.00
36092;BME280;22147;52.388;13.390;2022-12-20T10:11:40;101112.03;;;5.62;100.00
36092;BME280;22147;52.388;13.390;2022-12-20T10:21:23;101120.72;;;5.40;100.00
36092;BME280;22147;52.388;13.390;2022-12-20T10:24:30;101114.09;;;5.41;100.00
36092;BME280;22147;52.388;13.390;2022-12-20T10:27:16;101108.63;;;5.36;100.00
36092;BME280;22147;52.388;13.390;2022-12-20T10:29:49;101108.19;;;5.58;100.00
36092;BME280;22147;52.388;13.390;2022-12-20T10:32:23;101104.16;;;5.84;100.00
36092;BME280;22147;52.388;13.390;2022-12-20T10:38:04;101087.53;;;6.00;100.00
36092;BME280;22147;52.388;13.390;2022-12-20T10:44:00;101072.78;;;6.44;100.00
36092;BME280;22147;52.388;13.390;2022-12-20T10:46:59;101074.38;;;6.50;100.00
36092;BME280;22147;52.388;13.390;2022-12-20T10:49:36;101065.94;;;6.36;100.00
36092;BME280;22147;52.388;13.390;2022-12-20T10:52:12;101062.47;;;6.25;100.00
36092;BME280;22147;52.388;13.390;2022-12-20T10:54:45;101056.09;;;6.30;100.00
36092;BME280;22147;52.388;13.390;2022-12-20T10:57:24;101047.63;;;6.45;100.00
36092;BME280;22147;52.388;13.390;2022-12-20T11:00:00;101058.03;;;6.29;100.00
36092;BME280;22147;52.388;13.390;2022-12-20T11:02:38;101048.47;;;6.46;100.00
36092;BME280;22147;52.388;13.390;2022-12-20T11:08:13;101047.88;;;6.49;100.00
36092;BME280;22147;52.388;13.390;2022-12-20T11:13:46;101025.03;;;6.43;100.00
36092;BME280;22147;52.388;13.390;2022-12-20T11:16:34;101024.72;;;6.50;100.00
36092;BME280;22147;52.388;13.390;2022-12-20T11:21:50;101033.19;;;6.29;100.00
36092;BME280;22147;52.388;13.390;2022-12-20T13:59:12;100918.31;;;5.90;100.00
36092;BME280;22147;52.388;13.390;2022-12-20T14:02:01;100909.72;;;5.68;100.00
36092;BME280;22147;52.388;13.390;2022-12-20T14:04:43;100905.31;;;5.67;100.00
36092;BME280;22147;52.388;13.390;2022-12-20T14:07:17;100911.84;;;5.76;100.00
36092;BME280;22147;52.388;13.390;2022-12-20T14:09:58;100908.06;;;5.67;100.00
36092;BME280;22147;52.388;13.390;2022-12-20T14:12:29;100902.88;;;5.65;100.00
36092;BME280;22147;52.388;13.390;2022-12-20T14:15:32;100903.69;;;5.95;100.00
36092;BME280;22147;52.388;13.390;2022-12-20T14:18:20;100907.50;;;5.94;100.00
36092;BME280;22147;52.388;13.390;2022-12-20T14:21:02;100897.44;;;5.84;100.00
36092;BME280;22147;52.388;13.390;2022-12-20T14:23:45;100887.06;;;5.71;100.00
36092;BME280;22147;52.388;13.390;2022-12-20T14:26:26;100889.56;;;5.72;100.00
36092;BME280;22147;52.388;13.390;2022-12-20T14:28:59;100891.25;;;5.68;100.00
36092;BME280;22147;52.388;13.390;2022-12-20T14:36:49;100882.72;;;5.65;100.00
36092;BME280;22147;52.388;13.390;2022-12-20T14:39:34;100871.25;;;5.82;100.00
36092;BME280;22147;52.388;13.390;2022-12-20T14:44:41;100864.94;;;5.52;100.00
36092;BME280;22147;52.388;13.390;2022-12-20T14:47:26;100877.34;;;5.55;100.00
36092;BME280;22147;52.388;13.390;2022-12-20T14:50:03;100870.13;;;5.59;100.00
36092;BME280;22147;52.388;13.390;2022-12-20T14:52:38;100876.47;;;5.59;100.00
36092;BME280;22147;52.388;13.390;2022-12-20T14:55:20;100864.41;;;5.50;100.00
36092;BME280;22147;52.388;13.390;2022-12-20T14:57:56;100869.84;;;5.31;100.00
36092;BME280;22147;52.388;13.390;2022-12-20T15:00:32;100862.16;;;5.28;100.00
36092;BME280;22147;52.388;13.390;2022-12-20T15:03:18;100861.19;;;5.43;100.00
36092;BME280;22147;52.388;13.390;2022-12-20T15:05:58;100863.69;;;5.39;100.00
36092;BME280;22147;52.388;13.390;2022-12-20T15:08:33;100856.66;;;5.28;100.00
36092;BME280;22147;52.388;13.390;2022-12-20T15:13:44;100861.22;;;5.08;100.00
36092;BME280;22147;52.388;13.390;2022-12-20T15:16:27;100873.34;;;5.07;100.00
36092;BME280;22147;52.388;13.390;2022-12-20T15:19:01;100866.41;;;5.15;100.00
36092;BME280;22147;52.388;13.390;2022-12-20T15:21:41;100853.44;;;5.16;100.00
36092;BME280;22147;52.388;13.390;2022-12-20T15:24:18;100862.09;;;5.33;100.00
36092;BME280;22147;52.388;13.390;2022-12-20T15:26:52;100842.00;;;5.33;100.00
36092;BME280;22147;52.388;13.390;2022-12-20T15:29:26;100862.09;;;5.33;100.00
36092;BME280;22147;52.388;13.390;2022-12-20T15:32:22;100851.50;;;5.16;100.00
36092;BME280;22147;52.388;13.390;2022-12-20T15:34:58;100844.47;;;5.05;100.00
36092;BME280;22147;52.388;13.390;2022-12-20T15:37:28;100838.09;;;5.09;100.00
36092;BME280;22147;52.388;13.390;2022-12-20T15:39:58;100828.75;;;5.05;100.00
36092;BME280;22147;52.388;13.390;2022-12-20T15:42:28;100827.59;;;5.12;100.00
36092;BME280;22147;52.388;13.390;2022-12-20T15:44:58;100818.28;;;5.07;100.00
36092;BME280;22147;52.388;13.390;2022-12-20T15:47:29;100823.03;;;5.02;100.00
36092;BME280;22147;52.388;13.390;2022-12-20T15:49:59;100829.00;;;5.09;100.00
36092;BME280;22147;52.388;13.390;2022-12-20T15:52:30;100825.00;;;4.96;100.00
36092;BME280;22147;52.388;13.390;2022-12-20T15:55:00;100819.06;;;5.13;100.00
36092;BME280;22147;52.388;13.390;2022-12-20T15:57:30;100819.41;;;5.06;100.00
36092;BME280;22147;52.388;13.390;2022-12-20T16:00:00;100821.97;;;4.93;100.00
36092;BME280;22147;52.388;13.390;2022-12-20T16:02:33;100824.72;;;4.93;100.00
36092;BME280;22147;52.388;13.390;2022-12-20T16:05:04;100822.38;;;4.76;100.00
36092;BME280;22147;52.388;13.390;2022-12-20T16:07:32;100819.41;;;4.72;100.00
36092;BME280;22147;52.388;13.390;2022-12-20T16:10:00;100814.47;;;4.69;100.00
36092;BME280;22147;52.388;13.390;2022-12-20T16:12:34;100803.94;;;4.76;100.00
36092;BME280;22147;52.388;13.390;2022-12-20T16:15:08;100801.19;;;4.76;100.00
36092;BME280;22147;52.388;13.390;2022-12-20T16:17:46;100802.50;;;4.89;100.00
36092;BME280;22147;52.388;13.390;2022-12-20T16:20:16;100809.38;;;4.86;100.00
36092;BME280;22147;52.388;13.390;2022-12-20T16:22:46;100797.00;;;4.84;100.00
36092;BME280;22147;52.388;13.390;2022-12-20T16:25:33;100794.06;;;4.75;100.00
36092;BME280;22147;52.388;13.390;2022-12-20T16:28:03;100801.53;;;4.69;100.00
36092;BME280;22147;52.388;13.390;2022-12-20T16:30:30;100805.50;;;4.53;100.00
36092;BME280;22147;52.388;13.390;2022-12-20T16:32:59;100797.88;;;4.45;100.00
36092;BME280;22147;52.388;13.390;2022-12-20T16:35:34;100791.09;;;4.66;100.00
36092;BME280;22147;52.388;13.390;2022-12-20T16:38:05;100788.81;;;4.79;100.00
36092;BME280;22147;52.388;13.390;2022-12-20T16:40:35;100783.72;;;4.62;100.00
36092;BME280;22147;52.388;13.390;2022-12-20T16:43:13;100787.50;;;4.71;100.00
36092;BME280;22147;52.388;13.390;2022-12-20T16:45:45;100802.31;;;4.75;100.00
36092;BME280;22147;52.388;13.390;2022-12-20T16:48:15;100794.19;;;4.60;100.00
36092;BME280;22147;52.388;13.390;2022-12-20T16:50:44;100787.94;;;4.49;100.00
36092;BME280;22147;52.388;13.390;2022-12-20T16:53:14;100786.75;;;4.60;100.00